Time;durP1;ratioP1;P1;durP2;ratioP2;P2;SDS_P1;SDS_P2;PMS_P1;PMS_P2;Temp;Humidity;BMP_temperature;BMP_pressure;BME280_temperature;BME280_humidity;BME280_pressure;Samples;Min_cycle;Max_cycle;Signal;HPM_P1;HPM_P2
2022/04/01 00:01:16;;;;;;;5.82;4.25;;;1.20;99.90;;;;;;4998418;28;20126;-73
2022/04/01 00:03:41;;;;;;;7.15;4.55;;;1.20;99.90;;;;;;5002996;28;20042;-73
2022/04/01 00:06:07;;;;;;;7.20;4.38;;;1.20;99.90;;;;;;5030661;28;20054;-73
2022/04/01 00:08:33;;;;;;;6.45;4.15;;;1.10;99.90;;;;;;5035174;28;20041;-73
2022/04/01 00:10:58;;;;;;;6.40;4.10;;;1.10;99.90;;;;;;4996214;28;20042;-73
2022/04/01 00:13:24;;;;;;;6.43;3.92;;;1.10;99.90;;;;;;4988941;28;20034;-73
2022/04/01 00:15:50;;;;;;;6.93;3.92;;;1.10;99.90;;;;;;5027719;28;20068;-73
2022/04/01 00:18:16;;;;;;;6.68;3.88;;;1.10;99.90;;;;;;5034091;28;20080;-73
2022/04/01 00:20:41;;;;;;;6.13;4.25;;;1.10;99.90;;;;;;5005949;28;20042;-73
2022/04/01 00:23:07;;;;;;;9.88;4.85;;;1.10;99.90;;;;;;5031369;28;20050;-73
2022/04/01 00:25:33;;;;;;;6.65;4.07;;;1.10;99.90;;;;;;5001035;28;20085;-73
2022/04/01 00:27:58;;;;;;;7.18;4.22;;;1.10;99.90;;;;;;5022023;28;20042;-73
2022/04/01 00:30:24;;;;;;;7.25;4.35;;;1.10;99.90;;;;;;4995203;28;20046;-73
2022/04/01 00:32:50;;;;;;;8.63;4.55;;;1.00;99.90;;;;;;4994227;28;20034;-73
2022/04/01 00:35:15;;;;;;;7.45;4.38;;;1.00;99.90;;;;;;4998949;28;20074;-73
2022/04/01 00:37:41;;;;;;;7.38;4.20;;;1.00;99.90;;;;;;4997072;28;20069;-73
2022/04/01 00:40:09;;;;;;;5.78;4.03;;;1.00;99.90;;;;;;4991734;28;20053;-73
2022/04/01 00:42:35;;;;;;;6.75;4.38;;;1.00;99.90;;;;;;5032828;28;20061;-73
2022/04/01 00:45:01;;;;;;;6.53;3.95;;;1.00;99.90;;;;;;5003395;28;20414;-73
2022/04/01 00:47:26;;;;;;;7.80;3.90;;;1.00;99.90;;;;;;5007044;28;20042;-73
2022/04/01 00:49:54;;;;;;;7.22;3.88;;;0.90;99.90;;;;;;5004222;28;20613;-73
2022/04/01 00:52:22;;;;;;;6.70;4.13;;;1.00;99.90;;;;;;5005267;28;20046;-73
2022/04/01 00:54:49;;;;;;;6.35;3.88;;;1.00;99.90;;;;;;4999747;28;20038;-73
2022/04/01 00:57:15;;;;;;;6.05;3.85;;;1.00;99.90;;;;;;4997008;28;20061;-73
2022/04/01 00:59:45;;;;;;;6.07;4.00;;;1.00;99.90;;;;;;4991655;28;20039;-73
2022/04/01 01:02:11;;;;;;;6.60;3.70;;;1.00;99.90;;;;;;4992793;28;20037;-73
2022/04/01 01:04:37;;;;;;;7.40;4.07;;;1.00;99.90;;;;;;5006181;28;20053;-73
2022/04/01 01:07:04;;;;;;;6.30;3.40;;;0.90;99.90;;;;;;5032941;28;20049;-74
2022/04/01 01:09:30;;;;;;;5.72;3.95;;;0.90;99.90;;;;;;5001916;28;20309;-74
2022/04/01 01:11:56;;;;;;;6.15;3.65;;;0.90;99.90;;;;;;4996161;28;20061;-74
2022/04/01 01:14:24;;;;;;;8.38;3.60;;;0.90;99.90;;;;;;4998909;28;20092;-74
2022/04/01 01:16:53;;;;;;;6.68;3.85;;;0.90;99.90;;;;;;4997934;28;20037;-74
2022/04/01 01:19:20;;;;;;;12.93;4.22;;;0.90;99.90;;;;;;5007783;28;20042;-74
2022/04/01 01:21:49;;;;;;;6.17;3.63;;;0.80;99.90;;;;;;5034310;28;20483;-74
2022/04/01 01:24:15;;;;;;;6.80;3.58;;;0.80;99.90;;;;;;4998051;28;20072;-74
2022/04/01 01:26:44;;;;;;;7.10;3.53;;;0.80;99.90;;;;;;5000812;28;20038;-74
2022/04/01 01:29:11;;;;;;;5.72;3.30;;;0.80;99.90;;;;;;4998672;28;20486;-74
2022/04/01 01:31:37;;;;;;;6.63;3.40;;;0.80;99.90;;;;;;5000036;28;20120;-74
2022/04/01 01:34:04;;;;;;;7.65;3.63;;;0.80;99.90;;;;;;5002789;28;20146;-74
2022/04/01 01:36:30;;;;;;;6.75;3.17;;;0.80;99.90;;;;;;4996147;28;20114;-74
2022/04/01 01:38:57;;;;;;;5.47;3.40;;;0.80;99.90;;;;;;5007793;28;20161;-74
2022/04/01 01:41:23;;;;;;;6.53;3.47;;;0.80;99.90;;;;;;5039177;28;20524;-74
2022/04/01 01:43:48;;;;;;;7.50;3.22;;;0.80;99.90;;;;;;5036782;28;20045;-74
2022/04/01 01:46:15;;;;;;;4.40;2.92;;;0.80;99.90;;;;;;5005217;28;20069;-74
2022/04/01 01:48:41;;;;;;;5.70;3.17;;;0.70;99.90;;;;;;5001646;28;20050;-74
2022/04/01 01:56:39;;;;;;;4.47;2.78;;;0.70;99.90;;;;;;5009775;28;20054;-74
2022/04/01 01:59:05;;;;;;;5.43;3.47;;;0.70;99.90;;;;;;5007692;28;20068;-72
2022/04/01 02:01:31;;;;;;;6.32;3.08;;;0.70;99.90;;;;;;4996951;28;20038;-72
2022/04/01 02:03:59;;;;;;;6.88;3.33;;;0.70;99.90;;;;;;5003030;28;20161;-72
2022/04/01 02:06:24;;;;;;;5.95;3.08;;;0.70;99.90;;;;;;4992730;28;20057;-72
2022/04/01 02:08:51;;;;;;;5.75;3.05;;;0.70;99.90;;;;;;5008242;28;20042;-72
2022/04/01 02:11:17;;;;;;;5.43;3.28;;;0.70;99.90;;;;;;5009462;28;20103;-72
2022/04/01 02:13:45;;;;;;;6.38;2.95;;;0.70;99.90;;;;;;5005203;28;20063;-72
2022/04/01 02:16:10;;;;;;;5.00;3.05;;;0.70;99.90;;;;;;5005169;28;20049;-73
2022/04/01 02:18:36;;;;;;;7.10;3.35;;;0.70;99.90;;;;;;5008516;28;20111;-74
2022/04/01 02:21:08;;;;;;;8.15;3.75;;;0.70;99.90;;;;;;5000368;28;20053;-74
2022/04/01 02:23:37;;;;;;;6.70;3.10;;;0.80;99.90;;;;;;5005721;28;20057;-74
2022/04/01 02:26:03;;;;;;;7.25;2.75;;;0.80;99.90;;;;;;5041103;28;20107;-74
2022/04/01 02:28:28;;;;;;;9.63;4.72;;;0.80;99.90;;;;;;5009149;28;20034;-74
2022/04/01 02:30:55;;;;;;;6.15;3.28;;;0.80;99.90;;;;;;5006879;28;20050;-74
2022/04/01 02:33:20;;;;;;;6.28;2.80;;;0.80;99.90;;;;;;5007259;28;20046;-74
2022/04/01 02:35:46;;;;;;;7.25;3.17;;;0.80;99.90;;;;;;4998455;28;20038;-73
2022/04/01 02:38:12;;;;;;;4.78;3.13;;;0.80;99.90;;;;;;4994913;28;20156;-74
2022/04/01 02:40:37;;;;;;;5.07;2.90;;;0.70;99.90;;;;;;5002276;28;20046;-74
2022/04/01 02:43:03;;;;;;;6.35;3.78;;;0.70;99.90;;;;;;5004365;28;20042;-74
2022/04/01 02:45:29;;;;;;;4.72;2.63;;;0.70;99.90;;;;;;4997775;28;20573;-74
2022/04/01 02:47:54;;;;;;;5.07;3.20;;;0.70;99.90;;;;;;4993853;28;20081;-74
2022/04/01 02:50:20;;;;;;;4.72;2.70;;;0.70;99.90;;;;;;5005797;28;20061;-74
2022/04/01 02:52:46;;;;;;;3.60;2.55;;;0.70;99.90;;;;;;5040897;28;20041;-74
2022/04/01 02:55:12;;;;;;;5.13;2.88;;;0.70;99.90;;;;;;4996449;28;20045;-74
2022/04/01 02:57:38;;;;;;;14.25;3.78;;;0.70;99.90;;;;;;5010800;28;20117;-74
2022/04/01 03:00:09;;;;;;;4.78;2.92;;;0.60;99.90;;;;;;4994433;28;20260;-73
2022/04/01 03:02:37;;;;;;;5.70;2.80;;;0.60;99.90;;;;;;4999243;28;20558;-74
2022/04/01 03:05:07;;;;;;;9.52;3.08;;;0.60;99.90;;;;;;5006559;28;20065;-74
2022/04/01 03:07:33;;;;;;;4.25;3.03;;;0.60;99.90;;;;;;5006440;28;20483;-74
2022/04/01 03:09:59;;;;;;;4.85;2.80;;;0.60;99.90;;;;;;5006602;28;20129;-74
2022/04/01 03:12:25;;;;;;;4.95;2.55;;;0.60;99.90;;;;;;5007799;28;20209;-74
2022/04/01 03:14:51;;;;;;;6.28;2.75;;;0.60;99.90;;;;;;5024159;28;20103;-74
2022/04/01 03:17:17;;;;;;;5.35;2.80;;;0.60;99.90;;;;;;5001022;28;20054;-74
2022/04/01 03:19:44;;;;;;;5.63;3.00;;;0.60;99.90;;;;;;4999861;28;20042;-74
2022/04/01 03:22:09;;;;;;;6.50;2.60;;;0.60;99.90;;;;;;5008438;28;20485;-73
2022/04/01 03:24:35;;;;;;;5.70;2.85;;;0.70;99.90;;;;;;4998213;28;20057;-74
2022/04/01 03:27:02;;;;;;;3.97;2.70;;;0.70;99.90;;;;;;5031255;28;20034;-74
2022/04/01 03:29:28;;;;;;;9.88;2.95;;;0.70;99.90;;;;;;4990862;28;20113;-74
2022/04/01 03:31:54;;;;;;;4.22;2.40;;;0.70;99.90;;;;;;4991829;28;20050;-74
2022/04/01 03:34:20;;;;;;;5.78;2.60;;;0.70;99.90;;;;;;5027931;28;20064;-74
2022/04/01 03:36:46;;;;;;;4.97;2.78;;;0.70;99.90;;;;;;5007465;28;20440;-74
2022/04/01 03:39:12;;;;;;;5.10;2.50;;;0.70;99.90;;;;;;5005830;28;20053;-74
2022/04/01 03:41:39;;;;;;;6.55;2.47;;;0.70;99.90;;;;;;5009840;28;20050;-74
2022/04/01 03:44:05;;;;;;;5.95;2.85;;;0.70;99.90;;;;;;5005968;28;20504;-74
2022/04/01 03:47:07;;;;;;;7.78;2.85;;;0.70;99.90;;;;;;5025830;28;20124;-74
2022/04/01 03:49:34;;;;;;;4.88;2.53;;;0.80;99.90;;;;;;4998463;28;20112;-74
2022/04/01 03:52:01;;;;;;;;;;;0.70;99.90;;;;;;5036470;28;20038;-74
2022/04/01 03:54:28;;;;;;;5.82;2.85;;;0.70;99.90;;;;;;4989701;28;19976;-74
2022/04/01 03:56:58;;;;;;;7.40;2.63;;;0.80;99.90;;;;;;5000330;28;20089;-74
2022/04/01 03:59:40;;;;;;;7.78;3.10;;;0.80;99.90;;;;;;5004557;28;20030;-74
2022/04/01 04:02:12;;;;;;;5.65;2.78;;;0.80;99.90;;;;;;5004971;28;20053;-74
2022/04/01 04:04:39;;;;;;;6.85;3.20;;;0.80;99.90;;;;;;4990712;28;20052;-74
2022/04/01 04:07:09;;;;;;;;;;;0.70;99.90;;;;;;4992981;28;20034;-74
2022/04/01 04:09:38;;;;;;;4.45;2.78;;;0.70;99.90;;;;;;5000144;28;19929;-74
2022/04/01 04:12:06;;;;;;;7.82;3.05;;;0.70;99.90;;;;;;4993915;28;20137;-74
2022/04/01 04:14:32;;;;;;;3.75;2.47;;;0.70;99.90;;;;;;5000691;28;20142;-73
2022/04/01 04:17:05;;;;;;;4.90;2.60;;;0.70;99.90;;;;;;5032236;28;20050;-73
2022/04/01 04:19:52;;;;;;;5.45;2.72;;;0.80;99.90;;;;;;5001135;28;20119;-73
2022/04/01 04:22:30;;;;;;;8.40;2.58;;;0.80;99.90;;;;;;5000789;28;20050;-73
2022/04/01 04:24:58;;;;;;;4.38;2.45;;;0.80;99.90;;;;;;5000699;28;20061;-72
2022/04/01 04:27:30;;;;;;;5.75;2.70;;;0.80;99.90;;;;;;4996226;28;20555;-73
2022/04/01 04:30:08;;;;;;;6.93;2.90;;;0.80;99.90;;;;;;5001557;28;20409;-73
2022/04/01 04:32:38;;;;;;;6.05;2.55;;;0.80;99.90;;;;;;4990459;28;20544;-73
2022/04/01 04:35:07;;;;;;;4.90;2.65;;;0.80;99.90;;;;;;5021341;28;20387;-72
2022/04/01 04:37:42;;;;;;;5.40;2.97;;;0.80;99.90;;;;;;5007795;28;20121;-73
2022/04/01 04:40:09;;;;;;;6.63;2.90;;;0.90;99.90;;;;;;5005656;28;20111;-73
2022/04/01 04:42:35;;;;;;;6.32;2.88;;;0.90;99.90;;;;;;5006838;28;20050;-73
2022/04/01 04:45:01;;;;;;;5.55;2.65;;;0.90;99.90;;;;;;5005398;28;20145;-73
2022/04/01 04:47:28;;;;;;;5.80;2.80;;;0.90;99.90;;;;;;5025075;28;20038;-73
2022/04/01 04:49:57;;;;;;;5.10;2.35;;;0.90;99.90;;;;;;4999456;28;20062;-73
2022/04/01 04:52:28;;;;;;;6.03;2.50;;;0.90;99.90;;;;;;5002947;28;20064;-73
2022/04/01 04:54:55;;;;;;;5.15;2.35;;;0.90;99.90;;;;;;5020200;28;20058;-73
2022/04/01 04:57:21;;;;;;;4.30;2.20;;;0.90;99.90;;;;;;5003174;28;20049;-72
2022/04/01 04:59:48;;;;;;;7.85;2.78;;;1.00;99.90;;;;;;5004676;28;20046;-73
2022/04/01 05:02:57;;;;;;;4.57;2.30;;;1.00;99.90;;;;;;5009911;28;20126;-73
2022/04/01 05:05:29;;;;;;;5.47;2.60;;;1.00;99.90;;;;;;5006442;28;20077;-73
2022/04/01 05:08:03;;;;;;;4.78;2.13;;;1.00;99.90;;;;;;4997372;28;20075;-73
2022/04/01 05:10:47;;;;;;;4.38;2.40;;;1.10;99.90;;;;;;5004724;28;20182;-73
2022/04/01 05:13:28;;;;;;;5.38;2.50;;;1.10;99.90;;;;;;5010816;28;20042;-73
2022/04/01 05:15:56;;;;;;;6.13;2.70;;;1.20;99.90;;;;;;5006841;28;20034;-73
2022/04/01 05:18:33;;;;;;;5.32;2.42;;;1.20;99.90;;;;;;5002986;28;20046;-73
2022/04/01 05:21:02;;;;;;;7.55;3.03;;;1.20;99.90;;;;;;5006679;28;20038;-74
2022/04/01 05:23:59;;;;;;;6.07;2.50;;;1.20;99.90;;;;;;5010159;28;20046;-73
2022/04/01 05:26:38;;;;;;;5.38;2.88;;;1.30;99.90;;;;;;5007009;28;20057;-74
2022/04/01 05:29:07;;;;;;;4.25;2.60;;;1.30;99.90;;;;;;5006088;28;20050;-74
2022/04/01 05:32:07;;;;;;;5.00;2.88;;;1.40;99.90;;;;;;4998727;28;20042;-74
2022/04/01 05:34:43;;;;;;;3.60;2.30;;;1.40;99.90;;;;;;5009328;28;20042;-75
2022/04/01 05:37:09;;;;;;;3.92;2.83;;;1.50;99.90;;;;;;5002834;28;20049;-75
2022/04/01 05:39:39;;;;;;;10.20;3.10;;;1.50;99.90;;;;;;5044115;28;20053;-74
2022/04/01 05:42:07;;;;;;;5.05;2.50;;;1.50;99.90;;;;;;4998762;28;20056;-74
2022/04/01 05:44:33;;;;;;;;;;;1.50;99.90;;;;;;5008542;28;20052;-73
2022/04/01 05:47:00;;;;;;;6.18;3.08;;;1.50;99.90;;;;;;5000325;28;19922;-73
2022/04/01 05:49:26;;;;;;;4.13;2.58;;;1.50;99.90;;;;;;5009721;28;20512;-74
2022/04/01 05:51:53;;;;;;;4.18;2.50;;;1.50;99.90;;;;;;5042258;28;20046;-74
2022/04/01 05:54:23;;;;;;;3.42;2.13;;;1.60;99.90;;;;;;5009763;28;20050;-74
2022/04/01 05:56:50;;;;;;;4.38;3.00;;;1.60;99.90;;;;;;5005607;28;20061;-73
2022/04/01 05:59:17;;;;;;;4.93;2.05;;;1.70;99.90;;;;;;5003295;28;20046;-73
2022/04/01 06:02:19;;;;;;;3.45;2.20;;;1.60;99.90;;;;;;5002536;28;20121;-74
2022/04/01 06:05:16;;;;;;;3.80;2.10;;;1.70;99.90;;;;;;5037031;28;20608;-74
2022/04/01 06:07:56;;;;;;;3.63;1.92;;;1.70;99.90;;;;;;5031016;28;20099;-74
2022/04/01 06:10:40;;;;;;;3.83;2.03;;;1.70;99.90;;;;;;4997472;28;20052;-74
2022/04/01 06:13:24;;;;;;;3.13;1.70;;;1.70;99.90;;;;;;5006246;28;20533;-74
2022/04/01 06:16:05;;;;;;;1.85;1.40;;;1.70;99.90;;;;;;5032140;28;20519;-77
2022/04/01 06:18:46;;;;;;;2.70;1.52;;;1.80;99.90;;;;;;5011312;28;20049;-74
2022/04/01 06:21:21;;;;;;;2.10;1.50;;;1.80;99.90;;;;;;5002604;28;20046;-73
2022/04/01 06:24:05;;;;;;;2.97;1.40;;;1.90;99.90;;;;;;5008600;28;20099;-73
2022/04/01 06:26:36;;;;;;;2.17;1.25;;;1.80;99.90;;;;;;5004847;28;22125;-74
2022/04/01 06:29:23;;;;;;;4.88;1.23;;;1.90;99.90;;;;;;5002882;28;20069;-73
2022/04/01 06:31:56;;;;;;;2.83;1.10;;;1.90;99.90;;;;;;4991135;28;20100;-72
2022/04/01 06:34:25;;;;;;;4.90;1.55;;;1.90;99.90;;;;;;5008274;28;20100;-73
2022/04/01 06:36:59;;;;;;;2.60;1.27;;;2.00;99.90;;;;;;4991279;28;20046;-73
2022/04/01 06:39:49;;;;;;;3.28;1.15;;;2.00;99.90;;;;;;4993714;28;20042;-73
2022/04/01 06:42:20;;;;;;;2.20;1.05;;;2.00;99.90;;;;;;5008586;28;20062;-74
2022/04/01 06:44:48;;;;;;;2.10;1.00;;;2.00;99.90;;;;;;5007305;28;20093;-74
2022/04/01 06:47:14;;;;;;;3.25;1.13;;;2.10;99.90;;;;;;5006229;28;20077;-74
2022/04/01 06:49:40;;;;;;;2.85;1.27;;;2.00;99.90;;;;;;5009083;28;20143;-74
2022/04/01 06:52:07;;;;;;;2.70;1.08;;;2.10;99.90;;;;;;5003401;28;20485;-74
2022/04/01 06:54:33;;;;;;;4.55;1.25;;;2.10;99.90;;;;;;5007520;28;20046;-74
2022/04/01 06:56:58;;;;;;;2.22;1.20;;;2.20;99.90;;;;;;4995008;28;20121;-74
2022/04/01 06:59:25;;;;;;;1.95;1.05;;;2.20;99.90;;;;;;5032804;28;20447;-74
2022/04/01 07:01:51;;;;;;;2.65;0.80;;;2.20;99.90;;;;;;5008323;28;20026;-73
2022/04/01 07:04:17;;;;;;;1.42;1.13;;;2.20;99.90;;;;;;5010000;28;20038;-73
2022/04/01 07:06:42;;;;;;;2.95;1.23;;;2.20;99.90;;;;;;5008902;28;20048;-74
2022/04/01 07:09:08;;;;;;;2.55;1.40;;;2.30;99.90;;;;;;5004413;28;20125;-73
2022/04/01 07:11:34;;;;;;;2.30;1.20;;;2.20;99.90;;;;;;4995382;28;20073;-73
2022/04/01 07:14:00;;;;;;;3.33;1.70;;;2.20;99.90;;;;;;5004396;28;20046;-73
2022/04/01 07:16:25;;;;;;;4.63;1.80;;;2.30;99.90;;;;;;4994583;28;20474;-73
2022/04/01 07:18:51;;;;;;;3.42;1.65;;;2.20;99.90;;;;;;5004989;28;20042;-73
2022/04/01 07:21:17;;;;;;;2.80;1.80;;;2.20;99.90;;;;;;5008960;28;20046;-74
2022/04/01 07:23:43;;;;;;;2.97;1.80;;;2.20;99.90;;;;;;5006187;28;20046;-74
2022/04/01 07:26:09;;;;;;;4.50;2.15;;;2.20;99.90;;;;;;4990358;28;20386;-73
2022/04/01 07:28:35;;;;;;;4.32;1.95;;;2.20;99.90;;;;;;5001239;28;20130;-74
2022/04/01 07:32:29;;;;;;;19.27;2.53;;;2.20;99.90;;;;;;5004607;28;20132;-74
2022/04/01 07:33:47;;;;;;;3.13;1.90;;;2.20;99.90;;;;;;4997303;28;20072;-74
2022/04/01 07:36:13;;;;;;;4.45;2.22;;;2.20;99.90;;;;;;5005736;28;20428;-74
2022/04/01 07:38:39;;;;;;;3.10;2.10;;;2.20;99.90;;;;;;5006981;28;20042;-73
2022/04/01 07:41:05;;;;;;;4.25;2.10;;;2.20;99.90;;;;;;4991581;28;20129;-74
2022/04/01 07:43:31;;;;;;;4.65;2.30;;;2.30;99.90;;;;;;5007389;28;20139;-74
2022/04/01 07:45:57;;;;;;;3.53;2.10;;;2.30;99.90;;;;;;4999601;28;20478;-73
2022/04/01 07:48:23;;;;;;;5.93;2.45;;;2.30;99.90;;;;;;5005261;28;20137;-71
2022/04/01 07:50:49;;;;;;;5.40;2.80;;;2.30;99.90;;;;;;4996958;28;20035;-72
2022/04/01 07:53:16;;;;;;;6.57;2.80;;;2.30;99.90;;;;;;4989242;28;20043;-74
2022/04/01 07:55:43;;;;;;;6.13;2.83;;;2.30;99.90;;;;;;4996047;28;20096;-76
2022/04/01 07:58:10;;;;;;;7.57;3.53;;;2.30;99.90;;;;;;5027293;28;20054;-77
2022/04/01 08:00:35;;;;;;;6.78;3.30;;;2.30;99.90;;;;;;4993814;28;20042;-77
2022/04/01 08:03:01;;;;;;;6.05;3.47;;;2.30;99.90;;;;;;5028888;28;20053;-75
2022/04/01 08:05:27;;;;;;;9.48;3.60;;;2.30;99.90;;;;;;4993701;28;20089;-75
2022/04/01 08:07:53;;;;;;;4.47;3.00;;;2.40;99.90;;;;;;4994361;28;20069;-76
2022/04/01 08:10:18;;;;;;;8.07;3.30;;;2.40;99.90;;;;;;4997060;28;20042;-76
2022/04/01 08:12:44;;;;;;;6.93;3.97;;;2.40;99.90;;;;;;5035877;28;20038;-76
2022/04/01 08:15:11;;;;;;;7.70;3.75;;;2.30;99.90;;;;;;5009262;28;20489;-76
2022/04/01 08:17:37;;;;;;;5.57;3.47;;;2.30;99.90;;;;;;4995418;28;20065;-74
2022/04/01 08:20:03;;;;;;;5.70;4.25;;;2.30;99.90;;;;;;4988625;28;20748;-77
2022/04/01 08:22:29;;;;;;;7.78;4.03;;;2.30;99.90;;;;;;4996132;28;20046;-77
2022/04/01 08:24:55;;;;;;;6.50;4.03;;;2.30;99.90;;;;;;5009196;28;20038;-74
2022/04/01 08:27:21;;;;;;;5.95;3.90;;;2.20;99.90;;;;;;5006701;28;20394;-75
2022/04/01 08:29:47;;;;;;;6.22;4.03;;;2.20;99.90;;;;;;5008765;28;20404;-77
2022/04/01 08:32:12;;;;;;;6.65;3.85;;;2.20;99.90;;;;;;5032481;28;20038;-82
2022/04/01 08:34:38;;;;;;;8.18;4.30;;;2.20;99.90;;;;;;5003927;28;20140;-74
2022/04/01 08:37:06;;;;;;;7.78;4.65;;;2.30;99.90;;;;;;5011018;28;20125;-73
2022/04/01 08:39:32;;;;;;;10.18;4.55;;;2.30;99.90;;;;;;5021559;28;20038;-76
2022/04/01 08:41:58;;;;;;;6.93;4.22;;;2.30;99.90;;;;;;5010760;28;20082;-76
2022/04/01 08:44:24;;;;;;;7.20;4.65;;;2.30;99.90;;;;;;5001851;28;20089;-75
2022/04/01 08:46:50;;;;;;;6.53;4.30;;;2.40;99.90;;;;;;5010652;28;20093;-76
2022/04/01 08:49:16;;;;;;;8.45;5.00;;;2.40;99.90;;;;;;5004850;28;20496;-75
2022/04/01 08:51:41;;;;;;;8.38;4.50;;;2.50;99.90;;;;;;5042844;28;20053;-76
2022/04/01 08:54:07;;;;;;;7.40;5.10;;;2.50;99.90;;;;;;5021521;28;20116;-76
2022/04/01 08:56:33;;;;;;;6.93;4.70;;;2.60;99.90;;;;;;5000823;28;20117;-75
2022/04/01 08:58:59;;;;;;;8.65;5.20;;;2.60;99.90;;;;;;4995244;28;20125;-75
2022/04/01 09:01:26;;;;;;;8.10;5.43;;;2.60;99.90;;;;;;5011099;28;20038;-75
2022/04/01 09:03:55;;;;;;;7.15;4.57;;;2.70;99.90;;;;;;4998507;28;20094;-76
2022/04/01 09:06:21;;;;;;;8.27;4.88;;;2.70;99.90;;;;;;5036146;28;21127;-73
2022/04/01 09:08:46;;;;;;;9.43;5.63;;;2.70;99.90;;;;;;5012384;28;20042;-74
2022/04/01 09:11:17;;;;;;;9.55;5.57;;;2.80;99.90;;;;;;5044341;28;20060;-75
2022/04/01 09:13:42;;;;;;;7.60;5.60;;;2.80;99.90;;;;;;5006403;28;20686;-74
2022/04/01 09:16:09;;;;;;;12.70;6.28;;;2.80;99.90;;;;;;5011389;28;20177;-73
2022/04/01 09:18:43;;;;;;;8.15;5.55;;;2.80;99.90;;;;;;4997212;28;20093;-72
2022/04/01 09:21:11;;;;;;;9.85;6.55;;;2.90;99.90;;;;;;5008022;28;20034;-72
2022/04/01 09:23:38;;;;;;;10.38;6.68;;;2.90;99.90;;;;;;5011986;28;20060;-71
2022/04/01 09:26:05;;;;;;;10.90;6.68;;;2.90;99.90;;;;;;5012102;28;20049;-74
2022/04/01 09:28:38;;;;;;;15.98;7.55;;;2.90;99.90;;;;;;5005999;28;20084;-72
2022/04/01 09:31:06;;;;;;;12.13;7.80;;;2.90;99.90;;;;;;5004681;28;20119;-73
2022/04/01 09:33:43;;;;;;;11.43;7.10;;;2.90;99.90;;;;;;5012363;28;20418;-71
2022/04/01 09:36:27;;;;;;;9.63;6.53;;;2.90;99.90;;;;;;5016996;28;20080;-79
2022/04/01 09:39:06;;;;;;;8.57;6.47;;;2.90;99.90;;;;;;4992703;28;20046;-77
2022/04/01 09:41:39;;;;;;;9.32;6.63;;;2.90;99.90;;;;;;4994958;28;20489;-79
2022/04/01 09:44:08;;;;;;;11.23;7.05;;;2.80;99.90;;;;;;4991473;28;20050;-80
2022/04/01 09:46:41;;;;;;;11.18;7.20;;;2.80;99.90;;;;;;4999127;28;21003;-78
2022/04/01 09:49:07;;;;;;;10.88;7.30;;;2.90;99.90;;;;;;4994023;28;20096;-77
2022/04/01 09:51:33;;;;;;;10.30;6.75;;;2.90;99.90;;;;;;4991232;28;20506;-78
2022/04/01 09:54:02;;;;;;;10.00;7.18;;;2.90;99.90;;;;;;4991419;28;20065;-76
2022/04/01 09:56:38;;;;;;;11.90;7.05;;;2.90;99.90;;;;;;4997497;28;20062;-81
2022/04/01 09:59:05;;;;;;;10.18;7.13;;;3.00;99.90;;;;;;4996352;28;20080;-82
2022/04/01 10:01:35;;;;;;;10.88;6.60;;;3.00;99.90;;;;;;4993724;28;20045;-76
2022/04/01 10:04:02;;;;;;;10.90;6.90;;;3.10;99.90;;;;;;4992313;28;20038;-77
2022/04/01 10:06:30;;;;;;;9.65;6.75;;;3.10;99.90;;;;;;4996646;28;20050;-75
2022/04/01 10:08:59;;;;;;;9.07;6.47;;;3.20;99.90;;;;;;4995220;28;20378;-76
2022/04/01 10:11:25;;;;;;;10.35;6.35;;;3.20;99.90;;;;;;4991489;28;20071;-78
2022/04/01 10:13:53;;;;;;;11.10;7.40;;;3.20;99.90;;;;;;4998570;28;20054;-75
2022/04/01 10:16:21;;;;;;;10.35;6.75;;;3.20;99.90;;;;;;4996939;28;20066;-76
2022/04/01 10:18:47;;;;;;;9.60;7.00;;;3.20;99.90;;;;;;4993045;28;20073;-79
2022/04/01 10:21:20;;;;;;;12.90;7.45;;;3.20;99.90;;;;;;5027083;28;20093;-78
2022/04/01 10:23:59;;;;;;;10.57;7.35;;;3.20;99.90;;;;;;4995405;28;20050;-78
2022/04/01 10:26:32;;;;;;;12.10;7.55;;;3.20;99.90;;;;;;4993340;28;20049;-74
2022/04/01 10:28:58;;;;;;;10.82;7.30;;;3.20;99.90;;;;;;4990896;28;20498;-74
2022/04/01 10:31:25;;;;;;;11.02;7.32;;;3.30;99.90;;;;;;4994699;28;20052;-72
2022/04/01 10:33:51;;;;;;;11.53;7.57;;;3.30;99.90;;;;;;4992764;28;20054;-72
2022/04/01 10:36:34;;;;;;;10.32;7.50;;;3.30;99.90;;;;;;4992273;28;20297;-74
2022/04/01 10:39:04;;;;;;;9.60;6.97;;;3.30;99.90;;;;;;5003843;28;20100;-80
2022/04/01 10:41:29;;;;;;;12.68;7.20;;;3.30;99.90;;;;;;4979584;28;20108;-79
2022/04/01 10:43:56;;;;;;;13.32;7.53;;;3.20;99.90;;;;;;4996508;28;20054;-77
2022/04/01 10:46:22;;;;;;;10.80;6.63;;;3.20;99.90;;;;;;4999384;28;20069;-87
2022/04/01 10:52:19;;;;;;;16.45;6.78;;;3.30;99.90;;;;;;4993552;28;20047;-79
2022/04/01 10:54:50;;;;;;;11.55;6.13;;;3.30;99.90;;;;;;4992469;28;20046;-84
2022/04/01 10:57:30;;;;;;;7.32;5.78;;;3.40;99.90;;;;;;4994504;28;20034;-84
2022/04/01 11:00:02;;;;;;;8.75;5.78;;;3.40;99.90;;;;;;4991294;28;20042;-83
2022/04/01 11:02:28;;;;;;;10.07;6.68;;;3.50;99.90;;;;;;4989931;28;20073;-85
2022/04/01 11:04:53;;;;;;;8.80;5.85;;;3.50;99.90;;;;;;4990895;28;20080;-83
2022/04/01 11:07:22;;;;;;;9.20;6.13;;;3.40;99.90;;;;;;4996507;28;20057;-83
2022/04/01 11:10:00;;;;;;;7.78;5.28;;;3.40;99.90;;;;;;5028600;28;20064;-84
2022/04/01 11:12:40;;;;;;;8.82;5.63;;;3.30;99.90;;;;;;4998110;28;20051;-82
2022/04/01 11:15:26;;;;;;;8.95;5.15;;;3.30;99.90;;;;;;4997070;28;20560;-81
2022/04/01 11:17:55;;;;;;;7.63;5.22;;;3.30;99.90;;;;;;4992362;28;20046;-84
2022/04/01 11:20:32;;;;;;;6.80;4.75;;;3.20;99.90;;;;;;4997429;28;20049;-75
2022/04/01 11:22:58;;;;;;;7.93;5.07;;;3.30;99.90;;;;;;5025053;28;20056;-75
2022/04/01 11:25:24;;;;;;;8.23;4.50;;;3.30;99.90;;;;;;5026771;28;20528;-85
2022/04/01 11:28:14;;;;;;;7.45;4.43;;;3.20;99.90;;;;;;4999404;28;20054;-83
2022/04/01 11:30:45;;;;;;;6.30;4.25;;;3.30;99.90;;;;;;4998903;28;20555;-79
2022/04/01 11:33:19;;;;;;;7.85;4.45;;;3.20;99.90;;;;;;4995861;28;20100;-79
2022/04/01 11:35:46;;;;;;;9.27;4.20;;;3.20;99.90;;;;;;4995292;28;20057;-80
2022/04/01 11:38:13;;;;;;;;;;;3.30;99.90;;;;;;4993827;28;20057;-81
2022/04/01 11:40:40;;;;;;;7.05;4.28;;;3.20;99.90;;;;;;4994785;28;20340;-80
2022/04/01 11:43:08;;;;;;;9.30;4.13;;;3.20;99.90;;;;;;5027943;28;20489;-83
2022/04/01 11:45:57;;;;;;;7.35;3.75;;;3.20;99.90;;;;;;5033315;27;20427;-83
2022/04/01 11:48:34;;;;;;;7.70;3.53;;;3.20;99.90;;;;;;5026442;28;20061;-79
2022/04/01 11:51:04;;;;;;;6.03;3.72;;;3.20;99.90;;;;;;5020600;28;20086;-81
2022/04/01 11:53:35;;;;;;;9.02;4.50;;;3.30;99.90;;;;;;5023951;28;20068;-74
2022/04/01 11:56:03;;;;;;;7.38;3.63;;;3.20;99.90;;;;;;5025110;28;20037;-74
2022/04/01 11:58:55;;;;;;;6.43;3.40;;;3.30;99.90;;;;;;5121312;27;20053;-75
2022/04/01 12:01:23;;;;;;;5.60;3.53;;;3.30;99.90;;;;;;5121302;27;20048;-73
2022/04/01 12:04:05;;;;;;;7.22;3.60;;;3.20;99.90;;;;;;5029157;28;20059;-78
2022/04/01 12:09:15;;;;;;;5.88;3.42;;;3.20;99.90;;;;;;5023722;27;20641;-74
2022/04/01 12:11:42;;;;;;;4.90;3.30;;;3.20;99.90;;;;;;5027764;28;20094;-72
2022/04/01 12:14:08;;;;;;;7.68;3.75;;;3.30;99.90;;;;;;5023321;28;20045;-74
2022/04/01 12:16:42;;;;;;;5.50;3.45;;;3.30;99.90;;;;;;5025020;28;20053;-74
2022/04/01 12:19:20;;;;;;;6.15;3.35;;;3.40;99.90;;;;;;5024622;28;20037;-78
2022/04/01 12:21:51;;;;;;;5.03;3.30;;;3.40;99.90;;;;;;5024103;28;20066;-83
2022/04/01 12:24:18;;;;;;;6.97;3.20;;;3.50;99.90;;;;;;5022239;28;20373;-85
2022/04/01 12:26:46;;;;;;;6.28;3.10;;;3.50;99.90;;;;;;5031866;28;20495;-83
2022/04/01 12:29:25;;;;;;;6.95;3.60;;;3.50;99.90;;;;;;5036605;27;20041;-83
2022/04/01 12:31:57;;;;;;;6.93;3.45;;;3.50;99.90;;;;;;5032243;28;20049;-79
2022/04/01 12:34:24;;;;;;;7.43;3.10;;;3.50;99.90;;;;;;5035149;28;20037;-82
2022/04/01 12:37:02;;;;;;;5.22;3.10;;;3.50;99.90;;;;;;5029337;28;20060;-82
2022/04/01 12:39:30;;;;;;;5.53;2.95;;;3.50;99.90;;;;;;5030709;28;21811;-83
2022/04/01 12:42:01;;;;;;;4.22;2.88;;;3.60;99.90;;;;;;5020745;28;20182;-77
2022/04/01 12:44:30;;;;;;;7.90;3.03;;;3.60;99.90;;;;;;5026242;28;20053;-74
2022/04/01 12:46:59;;;;;;;5.63;3.00;;;3.60;99.90;;;;;;5028870;28;20476;-73
2022/04/01 12:49:26;;;;;;;5.35;3.30;;;3.60;99.90;;;;;;5026603;28;20045;-77
2022/04/01 12:52:01;;;;;;;5.85;3.17;;;3.60;99.90;;;;;;5003606;28;20050;-77
2022/04/01 12:54:39;;;;;;;6.07;3.17;;;3.70;99.90;;;;;;5120963;27;20056;-75
2022/04/01 12:57:10;;;;;;;5.55;3.15;;;3.70;99.90;;;;;;5007819;28;20058;-76
2022/04/01 12:59:41;;;;;;;7.32;3.35;;;3.70;99.90;;;;;;5007040;28;20570;-79
2022/04/01 13:02:12;;;;;;;6.72;3.10;;;3.70;99.90;;;;;;5004166;28;20058;-80
2022/04/01 13:04:42;;;;;;;4.10;2.80;;;3.60;99.90;;;;;;5008350;28;20507;-75
2022/04/01 13:07:23;;;;;;;5.97;2.90;;;3.70;99.90;;;;;;5005968;28;20050;-75
2022/04/01 13:09:53;;;;;;;4.10;2.70;;;3.60;99.90;;;;;;5007081;28;20052;-80
2022/04/01 13:12:34;;;;;;;4.35;2.80;;;3.70;99.90;;;;;;5014316;28;20042;-80
2022/04/01 13:15:05;;;;;;;5.65;2.95;;;3.70;99.90;;;;;;5007546;28;20084;-80
2022/04/01 13:17:53;;;;;;;6.15;2.65;;;3.80;99.90;;;;;;5006831;28;20042;-78
2022/04/01 13:20:29;;;;;;;5.22;2.97;;;3.80;99.90;;;;;;5006515;28;20053;-79
2022/04/01 13:22:55;;;;;;;5.13;2.60;;;3.80;99.90;;;;;;5007235;28;20113;-83